首页
METAR-TAF:

METAR-TAF

机场 :

日内瓦国际机场

日内瓦, 瑞士

纬度: 46-15N, 经度: 006-08E, 海拔: 420米

当前天气观测

该预报发布于19分钟前的01:50 UTC
风速1节,风向多变
温度 0°C
湿度 93%
气压 1002 hPa
能见度10公里或以上
1500米以下无云,无积雨云

METAR: LSGG 140150Z AUTO VRB01KT CAVOK M00/M01 Q1002 NOSIG

时间: 03:09 (02:09 UTC)

预报

该预报发布于2小时和44分钟前的23:25 UTC
预报有效从14日的 00点(UTC)到 15日的 06点(UTC)
风速5节,风向多变
能见度10公里或以上
1500米以下无云,无积雨云
成为
从 14日的 01点(UTC)到 14日的 04点(UTC)
能见度10公里或以上
多云层高于5000英尺
短暂存在
从 14日的 08点(UTC)到 14日的 18点(UTC)
风速10节,风向东北
几率 40% :
短暂存在
从 14日的 12点(UTC)到 15日的 03点(UTC)
阵雨
几率 30% :
短暂存在
从 14日的 18点(UTC)到 15日的 01点(UTC)
多云层高于1400英尺
雨, 雪

TAF: LSGG 132325Z 1400/1506 VRB05KT CAVOK TX05/1415Z TN00/1406Z TN02/1506Z BECMG 1401/1404 9999 BKN050 TEMPO 1408/1418 05010KT PROB40 TEMPO 1412/1503 SHRA PROB30 TEMPO 1418/1501 RASN BKN014

超过4000个机场的气象观测和天气预报(METAR&TAF报告)。

可查询的气象台以黄色和红色小点在地图上表示。

将鼠标移到小点上方,可查看气象台名称。

然后点击查看天气观测和预报。

如需切换地图:点击带黑十字的绿色按钮放大地图;点击带横线的绿色按钮缩小地图;或者点击绿色箭头查看邻近地区的地图。


METAR-TAF: